sensor_id;sensor_type;location;lat;lon;timestamp;temperature;humidity
9939;DHT22;5008;50.656;7.188;2023-05-09T04:02:52;15.40;99.90
9939;DHT22;5008;50.656;7.188;2023-05-09T04:05:20;15.40;99.90
9939;DHT22;5008;50.656;7.188;2023-05-09T04:07:46;15.40;99.90
9939;DHT22;5008;50.656;7.188;2023-05-09T04:10:14;15.40;99.90
9939;DHT22;5008;50.656;7.188;2023-05-09T04:12:41;15.40;99.90
9939;DHT22;5008;50.656;7.188;2023-05-09T04:15:09;15.40;99.90
9939;DHT22;5008;50.656;7.188;2023-05-09T04:17:35;15.40;99.90
9939;DHT22;5008;50.656;7.188;2023-05-09T04:20:05;15.40;99.90
9939;DHT22;5008;50.656;7.188;2023-05-09T04:22:32;15.40;99.90
9939;DHT22;5008;50.656;7.188;2023-05-09T04:25:05;15.40;99.90
9939;DHT22;5008;50.656;7.188;2023-05-09T04:27:40;15.40;99.90
9939;DHT22;5008;50.656;7.188;2023-05-09T04:30:07;15.40;99.90
9939;DHT22;5008;50.656;7.188;2023-05-09T04:32:34;15.40;99.90
9939;DHT22;5008;50.656;7.188;2023-05-09T04:35:06;15.40;99.90
9939;DHT22;5008;50.656;7.188;2023-05-09T04:37:33;15.40;99.90
9939;DHT22;5008;50.656;7.188;2023-05-09T04:40:00;15.40;99.90
9939;DHT22;5008;50.656;7.188;2023-05-09T04:42:42;15.40;99.90
9939;DHT22;5008;50.656;7.188;2023-05-09T04:45:10;15.40;99.90
9939;DHT22;5008;50.656;7.188;2023-05-09T04:47:37;15.40;99.90
9939;DHT22;5008;50.656;7.188;2023-05-09T04:50:06;15.40;99.90
9939;DHT22;5008;50.656;7.188;2023-05-09T04:52:34;15.40;99.90
9939;DHT22;5008;50.656;7.188;2023-05-09T04:55:01;15.50;99.90
9939;DHT22;5008;50.656;7.188;2023-05-09T04:57:28;15.40;99.90
9939;DHT22;5008;50.656;7.188;2023-05-09T04:59:55;15.50;99.90
9939;DHT22;5008;50.656;7.188;2023-05-09T05:02:22;15.50;99.90
9939;DHT22;5008;50.656;7.188;2023-05-09T05:04:49;15.50;99.90
9939;DHT22;5008;50.656;7.188;2023-05-09T05:07:17;15.50;99.90
9939;DHT22;5008;50.656;7.188;2023-05-09T05:09:44;15.50;99.90
9939;DHT22;5008;50.656;7.188;2023-05-09T05:12:11;15.50;99.90
9939;DHT22;5008;50.656;7.188;2023-05-09T05:14:38;15.50;99.90
9939;DHT22;5008;50.656;7.188;2023-05-09T05:17:05;15.60;99.90
9939;DHT22;5008;50.656;7.188;2023-05-09T05:19:34;15.60;99.90
9939;DHT22;5008;50.656;7.188;2023-05-09T05:22:00;15.60;99.90
9939;DHT22;5008;50.656;7.188;2023-05-09T05:24:29;15.60;99.90
9939;DHT22;5008;50.656;7.188;2023-05-09T05:26:56;15.70;99.90
9939;DHT22;5008;50.656;7.188;2023-05-09T05:29:22;15.70;99.90
9939;DHT22;5008;50.656;7.188;2023-05-09T05:31:49;15.70;99.90
9939;DHT22;5008;50.656;7.188;2023-05-09T05:37:29;15.70;99.90
9939;DHT22;5008;50.656;7.188;2023-05-09T05:39:57;15.70;99.90
9939;DHT22;5008;50.656;7.188;2023-05-09T05:42:24;15.70;99.90
9939;DHT22;5008;50.656;7.188;2023-05-09T05:44:51;15.70;99.90
9939;DHT22;5008;50.656;7.188;2023-05-09T05:47:23;15.80;99.90
9939;DHT22;5008;50.656;7.188;2023-05-09T05:49:50;15.80;99.90
9939;DHT22;5008;50.656;7.188;2023-05-09T05:52:17;15.90;99.90
9939;DHT22;5008;50.656;7.188;2023-05-09T05:54:44;15.90;99.90
9939;DHT22;5008;50.656;7.188;2023-05-09T05:57:12;15.90;99.90
9939;DHT22;5008;50.656;7.188;2023-05-09T05:59:38;16.00;99.90
9939;DHT22;5008;50.656;7.188;2023-05-09T06:02:05;16.00;99.90
9939;DHT22;5008;50.656;7.188;2023-05-09T06:04:33;16.00;99.90
9939;DHT22;5008;50.656;7.188;2023-05-09T06:06:59;16.00;99.90
9939;DHT22;5008;50.656;7.188;2023-05-09T06:09:26;16.10;99.90
9939;DHT22;5008;50.656;7.188;2023-05-09T06:11:55;16.00;99.90
9939;DHT22;5008;50.656;7.188;2023-05-09T06:14:23;16.10;99.90
9939;DHT22;5008;50.656;7.188;2023-05-09T06:16:50;16.10;99.90
9939;DHT22;5008;50.656;7.188;2023-05-09T06:19:17;16.10;99.90
9939;DHT22;5008;50.656;7.188;2023-05-09T06:21:44;16.20;99.90
9939;DHT22;5008;50.656;7.188;2023-05-09T06:24:11;16.30;99.90
9939;DHT22;5008;50.656;7.188;2023-05-09T06:26:38;16.30;99.90
9939;DHT22;5008;50.656;7.188;2023-05-09T06:29:05;16.40;99.90
9939;DHT22;5008;50.656;7.188;2023-05-09T06:31:33;16.40;99.90
9939;DHT22;5008;50.656;7.188;2023-05-09T06:34:02;16.50;99.90
9939;DHT22;5008;50.656;7.188;2023-05-09T06:36:29;16.60;99.90
9939;DHT22;5008;50.656;7.188;2023-05-09T06:38:56;16.50;99.90
9939;DHT22;5008;50.656;7.188;2023-05-09T06:41:23;16.60;99.90
9939;DHT22;5008;50.656;7.188;2023-05-09T06:43:50;16.60;99.90
9939;DHT22;5008;50.656;7.188;2023-05-09T06:46:17;16.60;99.90
9939;DHT22;5008;50.656;7.188;2023-05-09T06:48:45;16.60;99.90
9939;DHT22;5008;50.656;7.188;2023-05-09T06:51:12;16.60;99.90
9939;DHT22;5008;50.656;7.188;2023-05-09T06:53:39;16.70;99.90
9939;DHT22;5008;50.656;7.188;2023-05-09T06:56:06;16.70;99.90
9939;DHT22;5008;50.656;7.188;2023-05-09T06:58:33;16.70;99.90
9939;DHT22;5008;50.656;7.188;2023-05-09T07:00:59;16.80;99.90
9939;DHT22;5008;50.656;7.188;2023-05-09T07:03:26;16.80;99.90
9939;DHT22;5008;50.656;7.188;2023-05-09T07:05:55;16.80;99.90
9939;DHT22;5008;50.656;7.188;2023-05-09T07:08:23;16.90;99.90
9939;DHT22;5008;50.656;7.188;2023-05-09T07:10:50;17.00;99.90
9939;DHT22;5008;50.656;7.188;2023-05-09T07:13:17;17.00;99.90
9939;DHT22;5008;50.656;7.188;2023-05-09T07:15:43;17.10;99.90
9939;DHT22;5008;50.656;7.188;2023-05-09T07:18:10;17.30;99.90
9939;DHT22;5008;50.656;7.188;2023-05-09T07:20:37;17.40;99.90
9939;DHT22;5008;50.656;7.188;2023-05-09T07:23:05;17.60;99.90
9939;DHT22;5008;50.656;7.188;2023-05-09T07:25:32;17.70;99.90
9939;DHT22;5008;50.656;7.188;2023-05-09T07:27:59;17.70;99.90
9939;DHT22;5008;50.656;7.188;2023-05-09T07:30:26;17.70;99.90
9939;DHT22;5008;50.656;7.188;2023-05-09T07:32:53;17.90;99.90
9939;DHT22;5008;50.656;7.188;2023-05-09T07:35:20;17.90;99.90
9939;DHT22;5008;50.656;7.188;2023-05-09T07:37:47;18.00;99.90
9939;DHT22;5008;50.656;7.188;2023-05-09T07:40:15;17.90;99.90
9939;DHT22;5008;50.656;7.188;2023-05-09T07:42:42;17.90;99.90
9939;DHT22;5008;50.656;7.188;2023-05-09T07:45:14;17.90;99.90
9939;DHT22;5008;50.656;7.188;2023-05-09T07:47:41;17.90;99.90
9939;DHT22;5008;50.656;7.188;2023-05-09T07:50:08;17.90;99.90
9939;DHT22;5008;50.656;7.188;2023-05-09T07:52:35;17.90;99.90
9939;DHT22;5008;50.656;7.188;2023-05-09T07:55:02;17.90;99.90
9939;DHT22;5008;50.656;7.188;2023-05-09T07:57:30;18.00;99.90
9939;DHT22;5008;50.656;7.188;2023-05-09T07:59:57;18.10;99.90
9939;DHT22;5008;50.656;7.188;2023-05-09T08:02:24;18.20;99.90
9939;DHT22;5008;50.656;7.188;2023-05-09T08:04:51;18.20;99.90
9939;DHT22;5008;50.656;7.188;2023-05-09T08:07:18;18.20;99.90
9939;DHT22;5008;50.656;7.188;2023-05-09T08:09:45;18.20;99.90
9939;DHT22;5008;50.656;7.188;2023-05-09T08:12:12;18.20;99.90
9939;DHT22;5008;50.656;7.188;2023-05-09T08:14:40;18.20;99.90
9939;DHT22;5008;50.656;7.188;2023-05-09T08:17:07;18.30;99.90
9939;DHT22;5008;50.656;7.188;2023-05-09T08:19:34;18.40;99.90
9939;DHT22;5008;50.656;7.188;2023-05-09T08:22:01;18.30;99.90
9939;DHT22;5008;50.656;7.188;2023-05-09T08:24:28;18.30;99.90
9939;DHT22;5008;50.656;7.188;2023-05-09T08:26:56;18.40;99.90
9939;DHT22;5008;50.656;7.188;2023-05-09T08:29:23;18.30;99.90
9939;DHT22;5008;50.656;7.188;2023-05-09T08:31:51;18.40;99.90
9939;DHT22;5008;50.656;7.188;2023-05-09T08:34:19;18.40;99.90
9939;DHT22;5008;50.656;7.188;2023-05-09T08:36:46;18.50;99.90
9939;DHT22;5008;50.656;7.188;2023-05-09T08:39:13;18.40;99.90
9939;DHT22;5008;50.656;7.188;2023-05-09T08:41:41;18.50;99.90
9939;DHT22;5008;50.656;7.188;2023-05-09T08:44:08;18.50;99.90
9939;DHT22;5008;50.656;7.188;2023-05-09T08:46:37;18.60;99.90
9939;DHT22;5008;50.656;7.188;2023-05-09T08:49:08;18.60;99.90
9939;DHT22;5008;50.656;7.188;2023-05-09T08:51:38;18.70;99.90
9939;DHT22;5008;50.656;7.188;2023-05-09T08:54:05;18.70;99.90
9939;DHT22;5008;50.656;7.188;2023-05-09T08:56:34;18.80;99.90
9939;DHT22;5008;50.656;7.188;2023-05-09T08:59:02;18.90;99.90
9939;DHT22;5008;50.656;7.188;2023-05-09T09:01:32;18.90;99.90
9939;DHT22;5008;50.656;7.188;2023-05-09T09:03:59;18.80;99.90
9939;DHT22;5008;50.656;7.188;2023-05-09T09:06:29;18.80;99.90
9939;DHT22;5008;50.656;7.188;2023-05-09T09:08:56;18.90;99.90
9939;DHT22;5008;50.656;7.188;2023-05-09T09:11:24;19.00;99.90
9939;DHT22;5008;50.656;7.188;2023-05-09T09:13:53;19.00;99.90
9939;DHT22;5008;50.656;7.188;2023-05-09T09:16:23;19.00;99.90
9939;DHT22;5008;50.656;7.188;2023-05-09T09:18:51;19.20;99.90
9939;DHT22;5008;50.656;7.188;2023-05-09T09:21:22;19.20;99.90
9939;DHT22;5008;50.656;7.188;2023-05-09T09:23:52;19.20;99.90
9939;DHT22;5008;50.656;7.188;2023-05-09T09:26:20;19.20;99.90
9939;DHT22;5008;50.656;7.188;2023-05-09T09:28:47;19.20;99.90
9939;DHT22;5008;50.656;7.188;2023-05-09T09:31:21;19.20;99.90
9939;DHT22;5008;50.656;7.188;2023-05-09T09:33:48;19.30;99.90
9939;DHT22;5008;50.656;7.188;2023-05-09T09:36:21;19.30;99.90
9939;DHT22;5008;50.656;7.188;2023-05-09T09:38:55;19.30;99.90
9939;DHT22;5008;50.656;7.188;2023-05-09T09:41:29;19.30;99.90
9939;DHT22;5008;50.656;7.188;2023-05-09T09:43:56;19.40;99.90
9939;DHT22;5008;50.656;7.188;2023-05-09T09:46:23;19.50;99.90
9939;DHT22;5008;50.656;7.188;2023-05-09T09:48:50;19.50;99.90
9939;DHT22;5008;50.656;7.188;2023-05-09T09:51:21;19.70;99.90
9939;DHT22;5008;50.656;7.188;2023-05-09T09:53:47;19.60;99.90
9939;DHT22;5008;50.656;7.188;2023-05-09T09:56:16;19.70;99.90
9939;DHT22;5008;50.656;7.188;2023-05-09T09:58:42;19.50;99.90
9939;DHT22;5008;50.656;7.188;2023-05-09T10:01:10;19.60;99.90
9939;DHT22;5008;50.656;7.188;2023-05-09T10:03:39;19.60;99.90
9939;DHT22;5008;50.656;7.188;2023-05-09T10:06:09;19.60;99.90
9939;DHT22;5008;50.656;7.188;2023-05-09T10:08:36;19.90;99.90
9939;DHT22;5008;50.656;7.188;2023-05-09T10:11:03;19.90;99.90
9939;DHT22;5008;50.656;7.188;2023-05-09T11:46:50;20.40;99.90
9939;DHT22;5008;50.656;7.188;2023-05-09T11:49:28;20.50;99.90
9939;DHT22;5008;50.656;7.188;2023-05-09T11:52:20;20.50;99.90
9939;DHT22;5008;50.656;7.188;2023-05-09T11:54:48;20.50;99.90
9939;DHT22;5008;50.656;7.188;2023-05-09T11:57:24;20.40;99.90
9939;DHT22;5008;50.656;7.188;2023-05-09T11:59:51;20.40;99.90
9939;DHT22;5008;50.656;7.188;2023-05-09T12:02:20;20.30;99.90
9939;DHT22;5008;50.656;7.188;2023-05-09T12:04:51;20.60;99.90
9939;DHT22;5008;50.656;7.188;2023-05-09T12:07:18;20.80;99.90
9939;DHT22;5008;50.656;7.188;2023-05-09T12:09:48;20.70;99.90
9939;DHT22;5008;50.656;7.188;2023-05-09T12:12:16;20.60;99.90
9939;DHT22;5008;50.656;7.188;2023-05-09T12:14:48;20.50;99.90
9939;DHT22;5008;50.656;7.188;2023-05-09T12:17:15;20.40;99.90
9939;DHT22;5008;50.656;7.188;2023-05-09T12:19:44;20.30;99.90
9939;DHT22;5008;50.656;7.188;2023-05-09T12:22:11;20.20;99.90
9939;DHT22;5008;50.656;7.188;2023-05-09T12:24:47;20.40;99.90
9939;DHT22;5008;50.656;7.188;2023-05-09T12:27:18;20.70;99.90
9939;DHT22;5008;50.656;7.188;2023-05-09T12:29:46;20.70;99.90
9939;DHT22;5008;50.656;7.188;2023-05-09T12:32:20;20.70;99.90
9939;DHT22;5008;50.656;7.188;2023-05-09T12:34:52;20.80;99.90
9939;DHT22;5008;50.656;7.188;2023-05-09T12:37:30;20.80;99.90
9939;DHT22;5008;50.656;7.188;2023-05-09T12:40:02;20.60;99.90
9939;DHT22;5008;50.656;7.188;2023-05-09T12:42:33;20.40;99.90
9939;DHT22;5008;50.656;7.188;2023-05-09T12:45:18;20.40;99.90
9939;DHT22;5008;50.656;7.188;2023-05-09T12:47:55;20.50;99.90
9939;DHT22;5008;50.656;7.188;2023-05-09T12:50:54;20.50;99.90
9939;DHT22;5008;50.656;7.188;2023-05-09T12:53:54;20.50;99.90
9939;DHT22;5008;50.656;7.188;2023-05-09T12:56:21;20.40;99.90
9939;DHT22;5008;50.656;7.188;2023-05-09T12:58:52;20.40;99.90
9939;DHT22;5008;50.656;7.188;2023-05-09T13:01:27;20.50;99.90
9939;DHT22;5008;50.656;7.188;2023-05-09T13:04:00;20.60;99.90
9939;DHT22;5008;50.656;7.188;2023-05-09T13:06:29;20.70;99.90
9939;DHT22;5008;50.656;7.188;2023-05-09T13:08:57;20.90;99.90
9939;DHT22;5008;50.656;7.188;2023-05-09T13:11:35;20.80;99.90
9939;DHT22;5008;50.656;7.188;2023-05-09T13:14:12;20.60;99.90
9939;DHT22;5008;50.656;7.188;2023-05-09T13:16:40;20.70;99.90
9939;DHT22;5008;50.656;7.188;2023-05-09T13:19:11;20.70;99.90
9939;DHT22;5008;50.656;7.188;2023-05-09T13:21:43;20.60;99.90
9939;DHT22;5008;50.656;7.188;2023-05-09T13:24:16;20.50;99.90
9939;DHT22;5008;50.656;7.188;2023-05-09T13:26:43;20.40;99.90
9939;DHT22;5008;50.656;7.188;2023-05-09T13:29:10;20.40;99.90
9939;DHT22;5008;50.656;7.188;2023-05-09T13:34:37;20.20;99.90
9939;DHT22;5008;50.656;7.188;2023-05-09T13:37:05;20.10;99.90
9939;DHT22;5008;50.656;7.188;2023-05-09T13:39:35;20.30;99.90
9939;DHT22;5008;50.656;7.188;2023-05-09T13:42:04;20.20;99.90
9939;DHT22;5008;50.656;7.188;2023-05-09T13:44:31;20.30;99.90
9939;DHT22;5008;50.656;7.188;2023-05-09T13:46:58;20.40;99.90
9939;DHT22;5008;50.656;7.188;2023-05-09T13:49:25;20.30;99.90
9939;DHT22;5008;50.656;7.188;2023-05-09T13:51:54;20.20;99.90
9939;DHT22;5008;50.656;7.188;2023-05-09T13:54:22;20.10;99.90
9939;DHT22;5008;50.656;7.188;2023-05-09T13:56:49;20.10;99.90
9939;DHT22;5008;50.656;7.188;2023-05-09T13:59:19;20.00;99.90
9939;DHT22;5008;50.656;7.188;2023-05-09T14:01:49;20.00;99.90
9939;DHT22;5008;50.656;7.188;2023-05-09T14:04:16;19.90;99.90
9939;DHT22;5008;50.656;7.188;2023-05-09T14:06:43;20.00;99.90
9939;DHT22;5008;50.656;7.188;2023-05-09T14:09:12;20.00;99.90
9939;DHT22;5008;50.656;7.188;2023-05-09T14:11:41;19.90;99.90
9939;DHT22;5008;50.656;7.188;2023-05-09T14:14:11;19.80;99.90
9939;DHT22;5008;50.656;7.188;2023-05-09T14:16:48;19.80;99.90
9939;DHT22;5008;50.656;7.188;2023-05-09T14:19:16;19.80;99.90
9939;DHT22;5008;50.656;7.188;2023-05-09T14:21:44;19.80;99.90
9939;DHT22;5008;50.656;7.188;2023-05-09T14:24:15;19.90;99.90
9939;DHT22;5008;50.656;7.188;2023-05-09T14:26:44;19.80;99.90
9939;DHT22;5008;50.656;7.188;2023-05-09T14:29:11;19.70;99.90
9939;DHT22;5008;50.656;7.188;2023-05-09T14:31:38;19.60;99.90
9939;DHT22;5008;50.656;7.188;2023-05-09T14:34:05;19.60;99.90
9939;DHT22;5008;50.656;7.188;2023-05-09T14:36:32;19.50;99.90
9939;DHT22;5008;50.656;7.188;2023-05-09T14:39:07;19.40;99.90
9939;DHT22;5008;50.656;7.188;2023-05-09T14:41:36;19.50;99.90
9939;DHT22;5008;50.656;7.188;2023-05-09T14:44:05;19.50;99.90
9939;DHT22;5008;50.656;7.188;2023-05-09T14:46:32;19.50;99.90
9939;DHT22;5008;50.656;7.188;2023-05-09T14:48:59;19.60;99.90
9939;DHT22;5008;50.656;7.188;2023-05-09T14:51:29;19.70;99.90
9939;DHT22;5008;50.656;7.188;2023-05-09T14:53:56;19.70;99.90
9939;DHT22;5008;50.656;7.188;2023-05-09T14:56:23;19.80;99.90
9939;DHT22;5008;50.656;7.188;2023-05-09T14:58:50;19.70;99.90
9939;DHT22;5008;50.656;7.188;2023-05-09T15:01:19;19.60;99.90
9939;DHT22;5008;50.656;7.188;2023-05-09T15:03:46;19.40;99.90
9939;DHT22;5008;50.656;7.188;2023-05-09T15:06:14;19.20;99.90
9939;DHT22;5008;50.656;7.188;2023-05-09T15:08:41;19.00;99.90
9939;DHT22;5008;50.656;7.188;2023-05-09T15:11:08;18.90;99.90
9939;DHT22;5008;50.656;7.188;2023-05-09T15:13:35;18.70;99.90
9939;DHT22;5008;50.656;7.188;2023-05-09T15:16:02;18.50;99.90
9939;DHT22;5008;50.656;7.188;2023-05-09T15:18:32;18.30;99.90
9939;DHT22;5008;50.656;7.188;2023-05-09T15:21:00;18.20;99.90
9939;DHT22;5008;50.656;7.188;2023-05-09T15:23:29;18.10;99.90
9939;DHT22;5008;50.656;7.188;2023-05-09T15:25:56;17.90;99.90
9939;DHT22;5008;50.656;7.188;2023-05-09T15:28:25;17.80;99.90
9939;DHT22;5008;50.656;7.188;2023-05-09T15:30:52;17.70;99.90
9939;DHT22;5008;50.656;7.188;2023-05-09T15:33:20;17.60;99.90
9939;DHT22;5008;50.656;7.188;2023-05-09T15:35:49;17.70;99.90
9939;DHT22;5008;50.656;7.188;2023-05-09T15:38:16;17.70;99.90
9939;DHT22;5008;50.656;7.188;2023-05-09T15:40:43;17.60;99.90
9939;DHT22;5008;50.656;7.188;2023-05-09T15:43:10;17.60;99.90
9939;DHT22;5008;50.656;7.188;2023-05-09T15:45:37;17.50;99.90
9939;DHT22;5008;50.656;7.188;2023-05-09T15:48:09;17.50;99.90
9939;DHT22;5008;50.656;7.188;2023-05-09T15:50:36;17.50;99.90
9939;DHT22;5008;50.656;7.188;2023-05-09T15:53:05;17.40;99.90
9939;DHT22;5008;50.656;7.188;2023-05-09T15:55:32;17.40;99.90
9939;DHT22;5008;50.656;7.188;2023-05-09T15:57:59;17.40;99.90
9939;DHT22;5008;50.656;7.188;2023-05-09T16:00:27;17.50;99.90
9939;DHT22;5008;50.656;7.188;2023-05-09T16:02:59;17.50;99.90
9939;DHT22;5008;50.656;7.188;2023-05-09T16:05:29;17.30;99.90
9939;DHT22;5008;50.656;7.188;2023-05-09T16:07:58;17.30;99.90
9939;DHT22;5008;50.656;7.188;2023-05-09T16:10:27;17.30;99.90
9939;DHT22;5008;50.656;7.188;2023-05-09T16:12:57;17.20;99.90
9939;DHT22;5008;50.656;7.188;2023-05-09T16:15:24;17.20;99.90
9939;DHT22;5008;50.656;7.188;2023-05-09T16:17:51;17.10;99.90
9939;DHT22;5008;50.656;7.188;2023-05-09T16:20:17;17.20;99.90
9939;DHT22;5008;50.656;7.188;2023-05-09T16:22:44;17.20;99.90
9939;DHT22;5008;50.656;7.188;2023-05-09T16:25:11;17.10;99.90
9939;DHT22;5008;50.656;7.188;2023-05-09T16:27:39;17.10;99.90
9939;DHT22;5008;50.656;7.188;2023-05-09T16:30:07;17.20;99.90
9939;DHT22;5008;50.656;7.188;2023-05-09T16:32:34;17.20;99.90
9939;DHT22;5008;50.656;7.188;2023-05-09T16:35:08;17.20;99.90
9939;DHT22;5008;50.656;7.188;2023-05-09T16:37:35;17.30;99.90
9939;DHT22;5008;50.656;7.188;2023-05-09T16:40:02;17.20;99.90
9939;DHT22;5008;50.656;7.188;2023-05-09T16:42:29;17.20;99.90
9939;DHT22;5008;50.656;7.188;2023-05-09T16:44:58;17.20;99.90
9939;DHT22;5008;50.656;7.188;2023-05-09T16:47:24;17.20;99.90
9939;DHT22;5008;50.656;7.188;2023-05-09T16:49:51;17.20;99.90
9939;DHT22;5008;50.656;7.188;2023-05-09T16:52:18;17.10;99.90
9939;DHT22;5008;50.656;7.188;2023-05-09T16:54:45;17.10;99.90
9939;DHT22;5008;50.656;7.188;2023-05-09T16:57:13;17.10;99.90
9939;DHT22;5008;50.656;7.188;2023-05-09T16:59:40;17.10;99.90
9939;DHT22;5008;50.656;7.188;2023-05-09T17:02:08;17.10;99.90
9939;DHT22;5008;50.656;7.188;2023-05-09T17:04:35;17.00;99.90
9939;DHT22;5008;50.656;7.188;2023-05-09T17:07:01;17.00;99.90
9939;DHT22;5008;50.656;7.188;2023-05-09T17:09:28;17.00;99.90
9939;DHT22;5008;50.656;7.188;2023-05-09T17:11:55;17.00;99.90
9939;DHT22;5008;50.656;7.188;2023-05-09T17:14:22;17.00;99.90
9939;DHT22;5008;50.656;7.188;2023-05-09T17:16:48;17.00;99.90
9939;DHT22;5008;50.656;7.188;2023-05-09T17:19:17;16.90;99.90
9939;DHT22;5008;50.656;7.188;2023-05-09T17:21:47;17.00;99.90
9939;DHT22;5008;50.656;7.188;2023-05-09T17:24:14;16.90;99.90
9939;DHT22;5008;50.656;7.188;2023-05-09T17:26:41;16.90;99.90
9939;DHT22;5008;50.656;7.188;2023-05-09T17:29:08;16.90;99.90
9939;DHT22;5008;50.656;7.188;2023-05-09T17:31:42;17.00;99.90
9939;DHT22;5008;50.656;7.188;2023-05-09T17:34:09;16.90;99.90
9939;DHT22;5008;50.656;7.188;2023-05-09T17:36:38;17.00;99.90
9939;DHT22;5008;50.656;7.188;2023-05-09T17:39:05;17.00;99.90
9939;DHT22;5008;50.656;7.188;2023-05-09T17:41:32;17.00;99.90
9939;DHT22;5008;50.656;7.188;2023-05-09T17:43:58;16.90;99.90
9939;DHT22;5008;50.656;7.188;2023-05-09T17:46:25;16.90;99.90
9939;DHT22;5008;50.656;7.188;2023-05-09T17:48:52;16.80;99.90
9939;DHT22;5008;50.656;7.188;2023-05-09T17:51:38;16.80;99.90
9939;DHT22;5008;50.656;7.188;2023-05-09T17:54:04;16.70;99.90
9939;DHT22;5008;50.656;7.188;2023-05-09T17:56:31;16.70;99.90
9939;DHT22;5008;50.656;7.188;2023-05-09T17:59:04;16.70;99.90
9939;DHT22;5008;50.656;7.188;2023-05-09T18:01:32;16.70;99.90
9939;DHT22;5008;50.656;7.188;2023-05-09T18:03:59;16.70;99.90
9939;DHT22;5008;50.656;7.188;2023-05-09T18:06:26;16.70;99.90
9939;DHT22;5008;50.656;7.188;2023-05-09T18:09:03;16.70;99.90
9939;DHT22;5008;50.656;7.188;2023-05-09T18:11:30;16.70;99.90
9939;DHT22;5008;50.656;7.188;2023-05-09T18:14:12;16.60;99.90
9939;DHT22;5008;50.656;7.188;2023-05-09T18:16:39;16.60;99.90
9939;DHT22;5008;50.656;7.188;2023-05-09T18:19:10;16.60;99.90
9939;DHT22;5008;50.656;7.188;2023-05-09T18:21:37;16.50;99.90
9939;DHT22;5008;50.656;7.188;2023-05-09T18:24:06;16.50;99.90
9939;DHT22;5008;50.656;7.188;2023-05-09T18:26:33;16.50;99.90
9939;DHT22;5008;50.656;7.188;2023-05-09T18:29:00;16.50;99.90
9939;DHT22;5008;50.656;7.188;2023-05-09T18:31:34;16.50;99.90
9939;DHT22;5008;50.656;7.188;2023-05-09T18:34:03;16.50;99.90
9939;DHT22;5008;50.656;7.188;2023-05-09T18:36:30;16.50;99.90
9939;DHT22;5008;50.656;7.188;2023-05-09T18:38:57;16.50;99.90
9939;DHT22;5008;50.656;7.188;2023-05-09T18:41:25;16.50;99.90
9939;DHT22;5008;50.656;7.188;2023-05-09T18:43:55;16.50;99.90
9939;DHT22;5008;50.656;7.188;2023-05-09T18:46:22;16.50;99.90
9939;DHT22;5008;50.656;7.188;2023-05-09T18:48:52;16.40;99.90
9939;DHT22;5008;50.656;7.188;2023-05-09T18:51:19;16.40;99.90
9939;DHT22;5008;50.656;7.188;2023-05-09T18:53:46;16.40;99.90
9939;DHT22;5008;50.656;7.188;2023-05-09T18:56:13;16.40;99.90
9939;DHT22;5008;50.656;7.188;2023-05-09T18:58:47;16.30;99.90
9939;DHT22;5008;50.656;7.188;2023-05-09T19:01:15;16.20;99.90
9939;DHT22;5008;50.656;7.188;2023-05-09T19:03:43;16.20;99.90
9939;DHT22;5008;50.656;7.188;2023-05-09T19:06:12;16.20;99.90
9939;DHT22;5008;50.656;7.188;2023-05-09T19:08:40;16.20;99.90
9939;DHT22;5008;50.656;7.188;2023-05-09T19:11:23;16.20;99.90
9939;DHT22;5008;50.656;7.188;2023-05-09T19:13:51;16.20;99.90
9939;DHT22;5008;50.656;7.188;2023-05-09T19:16:18;16.10;99.90
9939;DHT22;5008;50.656;7.188;2023-05-09T19:18:46;16.10;99.90
9939;DHT22;5008;50.656;7.188;2023-05-09T19:21:14;16.10;99.90
9939;DHT22;5008;50.656;7.188;2023-05-09T19:23:43;16.10;99.90
9939;DHT22;5008;50.656;7.188;2023-05-09T19:26:12;16.10;99.90
9939;DHT22;5008;50.656;7.188;2023-05-09T19:28:40;16.10;99.90
9939;DHT22;5008;50.656;7.188;2023-05-09T19:31:08;16.00;99.90
9939;DHT22;5008;50.656;7.188;2023-05-09T19:33:35;16.00;99.90
9939;DHT22;5008;50.656;7.188;2023-05-09T19:36:02;16.00;99.90
9939;DHT22;5008;50.656;7.188;2023-05-09T19:38:29;16.00;99.90
9939;DHT22;5008;50.656;7.188;2023-05-09T19:40:56;16.00;99.90
9939;DHT22;5008;50.656;7.188;2023-05-09T19:43:23;16.00;99.90
9939;DHT22;5008;50.656;7.188;2023-05-09T19:45:50;16.00;99.90
9939;DHT22;5008;50.656;7.188;2023-05-09T19:48:18;15.90;99.90
9939;DHT22;5008;50.656;7.188;2023-05-09T19:50:45;15.90;99.90
9939;DHT22;5008;50.656;7.188;2023-05-09T19:53:12;15.80;99.90
9939;DHT22;5008;50.656;7.188;2023-05-09T19:55:39;15.80;99.90
9939;DHT22;5008;50.656;7.188;2023-05-09T19:58:07;15.70;99.90
9939;DHT22;5008;50.656;7.188;2023-05-09T20:00:33;15.70;99.90
9939;DHT22;5008;50.656;7.188;2023-05-09T20:03:03;15.70;99.90
9939;DHT22;5008;50.656;7.188;2023-05-09T20:05:32;15.60;99.90
9939;DHT22;5008;50.656;7.188;2023-05-09T20:07:59;15.50;99.90
9939;DHT22;5008;50.656;7.188;2023-05-09T20:10:26;15.50;99.90
9939;DHT22;5008;50.656;7.188;2023-05-09T20:12:55;15.40;99.90
9939;DHT22;5008;50.656;7.188;2023-05-09T20:15:23;15.40;99.90
9939;DHT22;5008;50.656;7.188;2023-05-09T20:17:50;15.30;99.90
9939;DHT22;5008;50.656;7.188;2023-05-09T20:20:17;15.20;99.90
9939;DHT22;5008;50.656;7.188;2023-05-09T20:22:45;15.20;99.90
9939;DHT22;5008;50.656;7.188;2023-05-09T20:25:12;15.20;99.90
9939;DHT22;5008;50.656;7.188;2023-05-09T20:27:39;15.10;99.90
9939;DHT22;5008;50.656;7.188;2023-05-09T20:30:07;15.10;99.90
9939;DHT22;5008;50.656;7.188;2023-05-09T20:33:11;15.00;99.90
9939;DHT22;5008;50.656;7.188;2023-05-09T20:35:37;15.00;99.90
9939;DHT22;5008;50.656;7.188;2023-05-09T20:38:08;14.90;99.90
9939;DHT22;5008;50.656;7.188;2023-05-09T20:40:35;15.00;99.90
9939;DHT22;5008;50.656;7.188;2023-05-09T20:43:02;14.90;99.90
9939;DHT22;5008;50.656;7.188;2023-05-09T20:45:29;14.90;99.90
9939;DHT22;5008;50.656;7.188;2023-05-09T20:47:55;14.90;99.90
9939;DHT22;5008;50.656;7.188;2023-05-09T20:50:23;14.90;99.90
9939;DHT22;5008;50.656;7.188;2023-05-09T20:52:50;14.80;99.90
9939;DHT22;5008;50.656;7.188;2023-05-09T20:55:18;14.80;99.90
9939;DHT22;5008;50.656;7.188;2023-05-09T20:57:45;14.70;99.90
